Terminal Aerodrome Forecast
Issued by NWS

Home | Current Version | Previous Version | Text Only | Print | Product List | Glossary On
Versions: 1 2 3 4 5 6 7 8 9 10 11 12 13 14 15 16 17 18 19 20 21 22 23 24 25 26 27 28 29
000
FTUS41 KBGM 021208 AAA
TAFRME
TAF AMD
KRME 021208Z 0212/0312 09008KT 5SM BR OVC008
      TEMPO 0212/0214 SCT008 OVC015
     FM021600 VRB03KT P6SM BKN025
     FM022100 VRB03KT P6SM SCT025 BKN040
     FM030100 VRB03KT P6SM SCT040
      TEMPO 0308/0312 5SM BR=

USA.gov is the U.S. government's official web portal to all federal, state and local government web resources and services.